Time;durP1;ratioP1;P1;durP2;ratioP2;P2;SDS_P1;SDS_P2;PMS_P1;PMS_P2;Temp;Humidity;BMP_temperature;BMP_pressure;BME280_temperature;BME280_humidity;BME280_pressure;Samples;Min_cycle;Max_cycle;Signal;HPM_P1;HPM_P2
2021/01/16 00:01:07;;;;;;;6.40;4.20;;;18.60;29.40;;;;;;8388242;28;20037;-55
2021/01/16 00:05:08;;;;;;;5.40;4.23;;;18.60;29.50;;;;;;8393156;28;20044;-55
2021/01/16 00:09:09;;;;;;;5.07;4.30;;;18.60;29.50;;;;;;8369142;28;20033;-56
2021/01/16 00:13:12;;;;;;;6.40;4.53;;;18.50;29.40;;;;;;8335186;28;20041;-56
2021/01/16 00:17:15;;;;;;;4.30;3.42;;;18.50;29.40;;;;;;8360506;28;20040;-56
2021/01/16 00:21:16;;;;;;;6.18;4.50;;;18.50;29.40;;;;;;8359737;28;20482;-56
2021/01/16 00:25:17;;;;;;;7.43;4.20;;;18.50;29.50;;;;;;8358463;28;20103;-56
2021/01/16 00:29:17;;;;;;;5.18;4.20;;;18.50;29.90;;;;;;8364339;28;20033;-56
2021/01/16 00:33:20;;;;;;;5.33;4.20;;;18.50;29.40;;;;;;8359578;28;20056;-55
2021/01/16 00:37:21;;;;;;;5.75;4.07;;;18.50;29.50;;;;;;8358049;28;20048;-56
2021/01/16 00:41:21;;;;;;;6.07;4.20;;;18.50;29.50;;;;;;8359606;28;20390;-56
2021/01/16 00:45:23;;;;;;;7.10;4.30;;;18.50;29.90;;;;;;8336141;28;20045;-55
2021/01/16 00:49:24;;;;;;;5.15;3.72;;;18.50;29.40;;;;;;8353660;28;20033;-56
2021/01/16 00:53:25;;;;;;;5.00;3.83;;;18.40;29.50;;;;;;8341282;28;20430;-56
2021/01/16 00:57:29;;;;;;;6.37;4.00;;;18.40;29.40;;;;;;8335845;28;20120;-55
2021/01/16 01:01:29;;;;;;;7.35;4.10;;;18.40;29.40;;;;;;8330456;28;20043;-56
2021/01/16 01:05:30;;;;;;;4.83;4.07;;;18.40;29.40;;;;;;8379027;28;20052;-56
2021/01/16 01:09:30;;;;;;;6.27;4.23;;;18.40;29.50;;;;;;8392027;28;20032;-56
2021/01/16 01:13:31;;;;;;;4.93;3.63;;;18.40;29.50;;;;;;8390006;28;20040;-56
2021/01/16 01:17:31;;;;;;;5.10;4.10;;;18.30;29.40;;;;;;8391416;28;20043;-56
2021/01/16 01:21:32;;;;;;;6.33;4.50;;;18.40;29.50;;;;;;8396171;28;20461;-56
2021/01/16 01:25:33;;;;;;;4.40;3.70;;;18.30;29.50;;;;;;8358287;28;20044;-56
2021/01/16 01:29:33;;;;;;;6.37;4.97;;;18.30;29.40;;;;;;8352273;28;20037;-56
2021/01/16 01:33:34;;;;;;;7.80;4.00;;;18.30;29.40;;;;;;8358553;28;20383;-56
2021/01/16 01:37:39;;;;;;;5.17;3.90;;;18.30;29.50;;;;;;8356372;28;20684;-56
2021/01/16 01:41:40;;;;;;;6.45;4.43;;;18.30;29.40;;;;;;8362301;28;20029;-55
2021/01/16 01:45:41;;;;;;;7.22;4.47;;;18.20;29.40;;;;;;8356096;28;20111;-56
2021/01/16 01:49:44;;;;;;;6.77;4.70;;;18.30;29.40;;;;;;8358070;28;20033;-56
2021/01/16 01:53:46;;;;;;;5.60;4.32;;;18.30;29.40;;;;;;8357738;28;20486;-56
2021/01/16 01:57:53;;;;;;;5.97;3.60;;;18.20;29.40;;;;;;8360353;28;20029;-56
2021/01/16 02:01:57;;;;;;;5.10;3.72;;;18.20;29.40;;;;;;8357775;28;20041;-56
2021/01/16 02:05:57;;;;;;;7.18;4.22;;;18.20;29.30;;;;;;8357642;28;20052;-56
2021/01/16 02:09:58;;;;;;;4.20;3.70;;;18.20;29.40;;;;;;8352697;28;20505;-56
2021/01/16 02:13:58;;;;;;;5.33;4.00;;;18.20;29.40;;;;;;8336068;28;20037;-55
2021/01/16 02:18:15;;;;;;;5.43;4.07;;;18.20;29.40;;;;;;8367430;28;20040;-56
2021/01/16 02:22:17;;;;;;;6.07;4.05;;;18.20;29.40;;;;;;8362143;28;20051;-56
2021/01/16 02:26:17;;;;;;;4.80;3.70;;;18.20;29.40;;;;;;8363826;28;20048;-56
2021/01/16 02:30:19;;;;;;;4.97;3.90;;;18.20;29.40;;;;;;8363896;28;20033;-56
2021/01/16 02:34:23;;;;;;;5.22;4.10;;;18.10;29.40;;;;;;8335530;28;20038;-55
2021/01/16 02:38:49;;;;;;;5.60;3.80;;;18.10;29.30;;;;;;8332480;28;20048;-55
2021/01/16 02:43:10;;;;;;;6.00;4.13;;;18.10;29.40;;;;;;8330400;28;20045;-56
2021/01/16 02:47:24;;;;;;;4.75;3.35;;;18.10;29.40;;;;;;8350102;28;20041;-56
2021/01/16 02:51:38;;;;;;;6.10;4.50;;;18.10;29.40;;;;;;8353011;28;20091;-56
2021/01/16 02:55:40;;;;;;;6.20;3.92;;;18.10;29.40;;;;;;8361626;28;20090;-55
2021/01/16 02:59:45;;;;;;;5.22;3.95;;;18.10;29.40;;;;;;8367101;28;20060;-55
2021/01/16 03:03:45;;;;;;;6.20;4.00;;;18.10;29.40;;;;;;8361552;28;20470;-55
2021/01/16 03:07:48;;;;;;;5.73;4.27;;;18.10;29.40;;;;;;8362541;28;20065;-56
2021/01/16 03:11:50;;;;;;;5.20;4.13;;;18.00;29.30;;;;;;8362677;28;20025;-56
2021/01/16 03:15:52;;;;;;;5.32;4.00;;;18.00;29.30;;;;;;8362712;28;20553;-56
2021/01/16 03:19:53;;;;;;;6.00;3.72;;;18.00;29.30;;;;;;8340108;28;20119;-56
2021/01/16 03:23:54;;;;;;;5.90;4.03;;;18.00;29.30;;;;;;8362336;28;20033;-56
2021/01/16 03:27:55;;;;;;;6.23;4.50;;;18.00;29.30;;;;;;8359150;28;20056;-56
2021/01/16 03:31:56;;;;;;;;;;;18.00;29.30;;;;;;8362625;28;20501;-58
2021/01/16 03:35:56;;;;;;;6.20;3.92;;;18.00;29.30;;;;;;8365991;28;20318;-55
2021/01/16 03:39:57;;;;;;;6.67;4.43;;;18.00;29.30;;;;;;8360670;28;20043;-55
2021/01/16 03:43:57;;;;;;;8.10;4.60;;;18.00;29.30;;;;;;8377667;28;20402;-54
2021/01/16 03:47:58;;;;;;;6.53;4.40;;;18.00;29.30;;;;;;8394457;28;20043;-54
2021/01/16 03:51:59;;;;;;;4.97;3.80;;;18.00;29.40;;;;;;8393844;28;20040;-55
2021/01/16 03:55:59;;;;;;;6.13;4.23;;;17.90;29.30;;;;;;8361297;28;20524;-55
2021/01/16 04:00:00;;;;;;;4.70;3.83;;;17.90;29.30;;;;;;8360436;28;20040;-54
2021/01/16 04:04:02;;;;;;;5.50;4.20;;;17.90;29.30;;;;;;8383966;28;20358;-54
2021/01/16 04:08:03;;;;;;;6.28;4.15;;;17.90;29.30;;;;;;8361362;28;20044;-55
2021/01/16 04:12:03;;;;;;;5.55;3.97;;;17.90;29.30;;;;;;8363606;28;20037;-55
2021/01/16 04:16:05;;;;;;;6.13;4.30;;;17.90;29.40;;;;;;8362249;28;20037;-55
2021/01/16 04:20:06;;;;;;;5.57;4.28;;;17.90;29.40;;;;;;8392601;28;20085;-54
2021/01/16 04:24:07;;;;;;;5.05;4.00;;;17.90;29.30;;;;;;8392362;28;20024;-55
2021/01/16 04:28:07;;;;;;;6.13;4.40;;;18.00;29.40;;;;;;8395649;28;20520;-55
2021/01/16 04:32:08;;;;;;;5.20;4.10;;;18.00;29.30;;;;;;8392483;28;20037;-55
2021/01/16 04:36:08;;;;;;;6.00;4.50;;;18.00;29.40;;;;;;8392710;28;20021;-55
2021/01/16 04:40:09;;;;;;;5.77;4.23;;;18.00;29.40;;;;;;8390580;28;20371;-55
2021/01/16 04:44:10;;;;;;;6.30;4.50;;;18.10;29.40;;;;;;8397086;28;20071;-55
2021/01/16 04:48:11;;;;;;;6.60;4.00;;;18.10;29.30;;;;;;8392111;28;20631;-55
2021/01/16 04:52:12;;;;;;;6.43;4.20;;;18.10;29.30;;;;;;8369055;28;20532;-55
2021/01/16 04:56:13;;;;;;;5.05;3.78;;;18.10;29.30;;;;;;8370411;28;20033;-55
2021/01/16 05:00:14;;;;;;;5.50;3.77;;;18.10;29.20;;;;;;8392163;28;20456;-55
2021/01/16 05:04:16;;;;;;;5.28;3.92;;;18.10;29.40;;;;;;8395467;27;20032;-55
2021/01/16 05:08:19;;;;;;;5.97;3.72;;;18.20;29.30;;;;;;8391843;28;20044;-55
2021/01/16 05:12:32;;;;;;;6.22;4.40;;;18.20;29.30;;;;;;8391921;28;20032;-55
2021/01/16 05:16:51;;;;;;;4.53;3.65;;;18.20;29.30;;;;;;8389540;28;20549;-55
2021/01/16 05:20:52;;;;;;;5.18;3.90;;;18.20;29.30;;;;;;8392591;28;20490;-55
2021/01/16 05:24:53;;;;;;;4.77;3.87;;;18.20;29.30;;;;;;8393203;28;20032;-55
2021/01/16 05:28:53;;;;;;;6.00;4.17;;;18.20;29.40;;;;;;8380784;28;20494;-55
2021/01/16 05:32:54;;;;;;;5.97;4.30;;;18.20;29.30;;;;;;8377157;28;20039;-55
2021/01/16 05:36:56;;;;;;;5.30;4.07;;;18.30;29.20;;;;;;8386457;28;20025;-55
2021/01/16 05:40:57;;;;;;;5.50;3.75;;;18.20;29.30;;;;;;8362446;28;20029;-55
2021/01/16 05:44:59;;;;;;;4.90;4.07;;;18.30;29.30;;;;;;8385059;28;20037;-55
2021/01/16 05:49:00;;;;;;;6.30;4.15;;;18.30;29.30;;;;;;8343887;28;20046;-55
2021/01/16 05:53:01;;;;;;;5.70;4.05;;;18.30;29.30;;;;;;8338978;28;20029;-55
2021/01/16 05:57:03;;;;;;;5.47;4.22;;;18.20;29.30;;;;;;8368923;28;20114;-55
2021/01/16 06:01:06;;;;;;;5.45;4.05;;;18.30;29.30;;;;;;8366565;28;20045;-55
2021/01/16 06:05:08;;;;;;;6.88;4.00;;;18.30;29.30;;;;;;8397182;28;20044;-55
2021/01/16 06:09:18;;;;;;;5.88;4.22;;;18.30;29.20;;;;;;8397056;28;20033;-55
2021/01/16 06:13:23;;;;;;;6.63;4.22;;;18.30;29.30;;;;;;8395456;28;20389;-55
2021/01/16 06:17:26;;;;;;;7.90;4.70;;;18.30;29.20;;;;;;8401850;28;20043;-55
2021/01/16 06:21:30;;;;;;;6.45;4.60;;;18.30;29.20;;;;;;8396942;28;20028;-55
2021/01/16 06:25:32;;;;;;;5.05;3.88;;;18.30;29.20;;;;;;8343614;28;20529;-55
2021/01/16 06:29:35;;;;;;;7.45;4.68;;;18.40;29.20;;;;;;8346310;28;20029;-55
2021/01/16 06:33:46;;;;;;;7.65;4.25;;;18.30;29.20;;;;;;8365465;28;20394;-55
2021/01/16 06:37:51;;;;;;;7.38;4.88;;;18.30;29.10;;;;;;8334731;28;20046;-57
2021/01/16 06:41:53;;;;;;;7.30;4.80;;;18.30;29.20;;;;;;8336806;28;20391;-55
2021/01/16 06:46:07;;;;;;;8.95;5.47;;;18.30;29.20;;;;;;8371431;27;20131;-55
2021/01/16 06:50:08;;;;;;;7.13;4.60;;;18.40;29.20;;;;;;8395883;28;20086;-55
2021/01/16 06:54:09;;;;;;;5.97;4.20;;;18.30;29.10;;;;;;8400402;28;20041;-55
2021/01/16 06:58:17;;;;;;;8.23;4.83;;;18.30;29.20;;;;;;8393965;28;20405;-55
2021/01/16 07:02:29;;;;;;;5.50;4.05;;;18.30;29.10;;;;;;8374685;28;20163;-56
2021/01/16 07:06:49;;;;;;;7.03;4.25;;;18.30;29.10;;;;;;8376306;28;20064;-55
2021/01/16 07:10:52;;;;;;;6.68;3.92;;;18.40;29.10;;;;;;8393937;28;20025;-55
2021/01/16 07:14:53;;;;;;;6.70;4.65;;;18.40;29.10;;;;;;8380526;28;20167;-55
2021/01/16 07:18:54;;;;;;;6.37;4.33;;;18.40;29.10;;;;;;8362035;28;20474;-55
2021/01/16 07:22:55;;;;;;;8.50;4.78;;;18.30;29.10;;;;;;8394169;28;20486;-55
2021/01/16 07:26:57;;;;;;;6.77;4.77;;;18.40;29.10;;;;;;8374896;28;20047;-55
2021/01/16 07:30:58;;;;;;;7.38;4.38;;;18.40;29.10;;;;;;8358703;28;20280;-55
2021/01/16 07:34:58;;;;;;;6.80;4.53;;;18.40;29.20;;;;;;8332990;28;20044;-55
2021/01/16 07:39:06;;;;;;;5.93;4.50;;;18.30;29.10;;;;;;8348095;28;20120;-55
2021/01/16 07:43:33;;;;;;;7.20;4.68;;;18.30;29.00;;;;;;8359833;28;20401;-56
2021/01/16 07:47:41;;;;;;;8.35;5.13;;;18.40;29.10;;;;;;8360764;28;20069;-55
2021/01/16 07:51:48;;;;;;;8.25;4.70;;;18.40;29.10;;;;;;8360556;28;20037;-55
2021/01/16 07:56:00;;;;;;;6.63;4.82;;;18.30;29.00;;;;;;8355027;28;20088;-55
2021/01/16 08:00:08;;;;;;;6.15;4.40;;;18.30;29.00;;;;;;8327662;28;20072;-55
2021/01/16 08:04:23;;;;;;;7.57;4.35;;;18.30;29.00;;;;;;8355650;28;20048;-55
2021/01/16 08:08:53;;;;;;;7.47;4.53;;;18.30;29.00;;;;;;8369843;28;20136;-55
2021/01/16 08:12:59;;;;;;;6.40;4.47;;;18.30;29.00;;;;;;8381230;28;20367;-47
2021/01/16 08:17:03;;;;;;;25.55;13.13;;;18.30;28.70;;;;;;8349748;28;20086;-51
2021/01/16 08:21:08;;;;;;;23.75;13.20;;;17.60;21.40;;;;;;8346517;28;20033;-50
2021/01/16 08:25:11;;;;;;;24.02;12.60;;;16.30;20.70;;;;;;8355596;28;20044;-56
2021/01/16 08:29:17;;;;;;;18.08;10.75;;;15.40;23.40;;;;;;8345537;28;20124;-55
2021/01/16 08:33:29;;;;;;;19.05;10.68;;;15.60;27.40;;;;;;8347300;28;20417;-55
2021/01/16 08:37:30;;;;;;;15.68;9.65;;;16.10;27.60;;;;;;8349031;28;20041;-54
2021/01/16 08:41:30;;;;;;;17.63;8.77;;;16.60;27.50;;;;;;8368003;28;20339;-53
2021/01/16 08:45:31;;;;;;;18.97;9.17;;;17.00;27.50;;;;;;8367615;28;20045;-53
2021/01/16 08:49:32;;;;;;;12.63;8.20;;;17.20;27.60;;;;;;8348787;28;20496;-52
2021/01/16 08:53:32;;;;;;;16.43;8.97;;;17.40;27.70;;;;;;8328955;28;20497;-52
2021/01/16 08:57:35;;;;;;;18.37;8.47;;;17.50;27.70;;;;;;8324216;28;20057;-53
2021/01/16 09:01:38;;;;;;;21.08;8.65;;;17.60;28.00;;;;;;8344506;28;20041;-52
2021/01/16 09:05:39;;;;;;;14.77;8.10;;;17.80;27.90;;;;;;8346385;28;20080;-55
2021/01/16 09:09:51;;;;;;;16.90;7.80;;;17.90;28.00;;;;;;8352241;28;20599;-55
2021/01/16 09:13:52;;;;;;;14.55;7.53;;;18.00;28.10;;;;;;8369135;28;20033;-55
2021/01/16 09:18:01;;;;;;;17.67;7.97;;;18.00;28.20;;;;;;8346975;28;20521;-55
2021/01/16 09:22:19;;;;;;;16.45;7.30;;;18.00;28.20;;;;;;8320873;28;20275;-54
2021/01/16 09:26:24;;;;;;;15.23;7.38;;;18.10;28.40;;;;;;8351405;28;20545;-55
2021/01/16 09:30:30;;;;;;;14.50;7.60;;;18.20;28.40;;;;;;8332845;28;20398;-54
2021/01/16 09:34:35;;;;;;;15.02;7.00;;;18.30;28.80;;;;;;8362559;28;20051;-53
2021/01/16 09:38:37;;;;;;;15.07;6.97;;;18.30;28.90;;;;;;8351707;28;20037;-54
2021/01/16 09:42:47;;;;;;;22.17;7.32;;;18.30;29.00;;;;;;8364301;28;20029;-54
2021/01/16 09:46:48;;;;;;;15.18;6.75;;;18.40;29.10;;;;;;8357745;28;20051;-55
2021/01/16 09:50:49;;;;;;;11.03;6.23;;;18.40;29.10;;;;;;8362499;28;20029;-52
2021/01/16 09:54:51;;;;;;;14.03;6.10;;;18.50;29.20;;;;;;8361757;28;20037;-56
2021/01/16 09:59:00;;;;;;;11.50;6.15;;;18.50;29.20;;;;;;8352150;28;20033;-56
2021/01/16 10:03:05;;;;;;;11.07;6.20;;;18.60;29.20;;;;;;8317843;28;20045;-54
2021/01/16 10:07:13;;;;;;;13.82;8.00;;;18.60;29.20;;;;;;8322245;28;20402;-57
2021/01/16 10:11:34;;;;;;;12.13;5.97;;;18.60;29.20;;;;;;8362343;28;20402;-54
2021/01/16 10:15:49;;;;;;;16.10;5.90;;;18.60;29.30;;;;;;8354822;28;20371;-54
2021/01/16 10:19:51;;;;;;;14.13;6.38;;;18.60;29.20;;;;;;8357951;28;20114;-53
2021/01/16 10:23:53;;;;;;;9.27;5.75;;;18.60;29.40;;;;;;8358110;28;20418;-49
2021/01/16 10:27:53;;;;;;;13.45;6.07;;;18.60;29.30;;;;;;8348963;28;20072;-55
2021/01/16 10:31:54;;;;;;;8.77;5.53;;;18.70;29.40;;;;;;8354924;28;20060;-53
2021/01/16 10:36:15;;;;;;;10.23;6.10;;;18.70;29.50;;;;;;8351356;28;20033;-56
2021/01/16 10:40:17;;;;;;;15.85;5.80;;;18.60;29.60;;;;;;8354241;28;20033;-54
2021/01/16 10:44:21;;;;;;;18.17;6.95;;;18.60;29.80;;;;;;8350653;28;20402;-55
2021/01/16 10:48:31;;;;;;;13.93;6.30;;;18.60;30.00;;;;;;8328659;28;20046;-53
2021/01/16 10:52:32;;;;;;;15.68;5.85;;;18.60;29.90;;;;;;8329607;28;20046;-53
2021/01/16 10:56:34;;;;;;;18.48;5.50;;;18.60;30.00;;;;;;8327352;28;20069;-49
2021/01/16 11:00:42;;;;;;;15.40;5.82;;;18.60;29.90;;;;;;8330299;28;20120;-54
2021/01/16 11:04:45;;;;;;;19.70;5.57;;;18.60;30.00;;;;;;8345676;28;20053;-53
2021/01/16 11:08:53;;;;;;;11.98;6.10;;;18.60;30.00;;;;;;8326569;28;20468;-55
2021/01/16 11:12:54;;;;;;;19.38;6.40;;;18.60;30.00;;;;;;8356540;28;20044;-55
2021/01/16 11:16:57;;;;;;;10.10;5.77;;;18.60;29.90;;;;;;8366954;28;20496;-55
2021/01/16 11:21:05;;;;;;;15.35;5.57;;;18.70;29.80;;;;;;8352776;28;20033;-53
2021/01/16 11:25:13;;;;;;;14.48;5.78;;;18.70;29.70;;;;;;8345422;28;20038;-54
2021/01/16 11:29:20;;;;;;;11.18;5.28;;;18.80;29.70;;;;;;8326076;28;20037;-55
2021/01/16 11:33:25;;;;;;;11.05;5.40;;;18.80;29.60;;;;;;8321420;28;20684;-55
2021/01/16 11:37:43;;;;;;;10.73;5.32;;;18.90;29.50;;;;;;8337339;28;20776;-55
2021/01/16 11:41:52;;;;;;;8.10;5.35;;;18.90;29.50;;;;;;8347434;28;20494;-54
2021/01/16 11:46:10;;;;;;;11.07;5.28;;;18.90;29.40;;;;;;8323791;28;20144;-49
2021/01/16 11:50:11;;;;;;;9.02;5.00;;;19.00;29.30;;;;;;8327583;28;20057;-53
2021/01/16 11:54:12;;;;;;;8.00;5.25;;;19.00;29.40;;;;;;8320206;28;20041;-53
2021/01/16 11:58:13;;;;;;;9.57;4.83;;;19.10;29.30;;;;;;8320407;28;20052;-56
2021/01/16 12:02:14;;;;;;;17.00;5.35;;;19.10;29.20;;;;;;8319268;28;20095;-55
2021/01/16 12:06:16;;;;;;;;;;;19.20;29.20;;;;;;8294942;28;20148;-55
2021/01/16 12:10:19;;;;;;;10.90;5.60;;;19.20;29.10;;;;;;8324269;28;19946;-55
2021/01/16 12:14:20;;;;;;;11.85;5.28;;;19.10;29.10;;;;;;8353964;28;20041;-56
2021/01/16 12:18:21;;;;;;;8.15;4.95;;;19.20;29.10;;;;;;8365820;28;20052;-55
2021/01/16 12:22:23;;;;;;;8.60;5.13;;;19.20;29.00;;;;;;8324810;28;20029;-54
2021/01/16 12:26:25;;;;;;;;;;;19.30;29.10;;;;;;8372076;28;20355;-55
2021/01/16 12:30:33;;;;;;;;;;;19.30;29.00;;;;;;8386402;28;19916;-57
2021/01/16 12:34:34;;;;;;;8.38;5.22;;;19.30;29.10;;;;;;8383964;28;20360;-57
2021/01/16 12:38:34;;;;;;;10.65;5.82;;;19.30;29.10;;;;;;8374914;28;20029;-55
2021/01/16 12:42:35;;;;;;;8.03;4.93;;;19.20;29.10;;;;;;8357419;28;20033;-54
2021/01/16 12:46:39;;;;;;;9.15;5.70;;;19.20;29.10;;;;;;8331446;28;20045;-54
2021/01/16 12:50:41;;;;;;;8.40;5.50;;;19.20;29.10;;;;;;8336591;28;20076;-54
2021/01/16 12:54:41;;;;;;;9.15;5.05;;;19.30;29.10;;;;;;8349704;28;20379;-53
2021/01/16 12:58:45;;;;;;;8.73;5.20;;;19.30;29.20;;;;;;8353485;28;20061;-54
2021/01/16 13:02:53;;;;;;;9.88;5.05;;;19.20;29.20;;;;;;8363280;28;20119;-57
2021/01/16 13:06:54;;;;;;;6.30;4.72;;;19.20;29.20;;;;;;8351826;28;20079;-57
2021/01/16 13:10:55;;;;;;;7.53;5.10;;;19.20;29.30;;;;;;8354361;28;20029;-55
2021/01/16 13:14:57;;;;;;;17.60;5.00;;;19.20;29.60;;;;;;8336995;28;20037;-55
2021/01/16 13:18:59;;;;;;;9.30;4.90;;;19.20;29.70;;;;;;8354426;28;20052;-55
2021/01/16 13:23:00;;;;;;;13.25;4.95;;;19.20;29.70;;;;;;8352092;28;20041;-54
2021/01/16 13:27:04;;;;;;;7.53;5.07;;;19.20;29.80;;;;;;8351249;28;20099;-53
2021/01/16 13:31:09;;;;;;;10.70;5.15;;;19.20;29.80;;;;;;8327809;28;20041;-49
2021/01/16 13:35:11;;;;;;;8.38;4.68;;;19.10;29.80;;;;;;8318399;28;20059;-50
2021/01/16 13:39:14;;;;;;;6.18;4.82;;;19.20;29.90;;;;;;8323078;28;20095;-54
2021/01/16 13:43:19;;;;;;;8.40;4.63;;;19.20;29.80;;;;;;8316069;28;20525;-52
2021/01/16 13:47:21;;;;;;;9.57;4.53;;;19.20;29.80;;;;;;8335020;28;20163;-54
2021/01/16 13:51:32;;;;;;;10.13;4.63;;;19.20;29.90;;;;;;8356718;28;20043;-53
2021/01/16 13:55:35;;;;;;;8.75;4.47;;;19.10;29.90;;;;;;8351478;28;20029;-54
2021/01/16 13:59:35;;;;;;;8.05;5.47;;;19.10;29.80;;;;;;8324546;28;20483;-52
2021/01/16 14:03:38;;;;;;;6.30;4.20;;;19.10;29.90;;;;;;8330137;28;20132;-52
2021/01/16 14:07:39;;;;;;;9.32;5.00;;;19.20;29.90;;;;;;8316436;28;20124;-53
2021/01/16 14:11:43;;;;;;;7.57;4.73;;;19.10;30.00;;;;;;8319489;28;20056;-54
2021/01/16 14:16:04;;;;;;;6.88;4.18;;;19.10;29.90;;;;;;8326908;28;20529;-54
2021/01/16 14:20:07;;;;;;;7.82;4.28;;;19.10;30.00;;;;;;8324563;28;20693;-54
2021/01/16 14:24:10;;;;;;;10.18;4.30;;;19.10;29.90;;;;;;8324397;28;20437;-53
2021/01/16 14:28:25;;;;;;;8.75;4.45;;;19.10;30.00;;;;;;8326949;28;20107;-55
2021/01/16 14:32:28;;;;;;;8.45;4.85;;;19.00;29.90;;;;;;8357509;28;20040;-53
2021/01/16 14:36:30;;;;;;;9.63;4.43;;;19.10;30.00;;;;;;8350086;28;20037;-53
2021/01/16 14:40:33;;;;;;;8.23;4.50;;;19.00;30.00;;;;;;8327279;28;20033;-51
2021/01/16 14:44:35;;;;;;;5.18;3.70;;;19.10;30.00;;;;;;8353361;28;20037;-50
2021/01/16 14:48:42;;;;;;;;;;;19.00;30.00;;;;;;8334601;28;20051;-53
2021/01/16 14:52:43;;;;;;;15.05;3.95;;;19.00;30.00;;;;;;8329010;28;19920;-54
2021/01/16 14:56:47;;;;;;;;;;;19.10;30.10;;;;;;8333444;28;20034;-52
2021/01/16 15:00:48;;;;;;;8.30;4.30;;;19.10;30.10;;;;;;8332243;28;19924;-51
2021/01/16 15:04:48;;;;;;;6.87;4.23;;;19.20;30.00;;;;;;8346081;28;20586;-52
2021/01/16 15:08:50;;;;;;;8.83;5.43;;;19.30;30.00;;;;;;8322709;28;20124;-53
2021/01/16 15:12:51;;;;;;;14.02;4.60;;;19.30;30.00;;;;;;8325408;28;20048;-54
2021/01/16 15:16:53;;;;;;;7.88;4.18;;;19.40;30.00;;;;;;8323642;28;20037;-53
2021/01/16 15:20:58;;;;;;;10.90;4.38;;;19.40;29.90;;;;;;8323322;28;20052;-51
2021/01/16 15:24:59;;;;;;;8.40;4.60;;;19.50;29.90;;;;;;8312388;28;20421;-55
2021/01/16 15:28:59;;;;;;;5.00;4.28;;;19.50;29.80;;;;;;8358939;28;20068;-56
2021/01/16 15:33:04;;;;;;;6.37;4.20;;;19.60;29.80;;;;;;8384558;28;20037;-56
2021/01/16 15:37:06;;;;;;;8.27;4.38;;;19.60;29.80;;;;;;8385258;28;20119;-56
2021/01/16 15:41:07;;;;;;;;;;;19.60;29.80;;;;;;8387402;28;20358;-56
2021/01/16 15:45:08;;;;;;;6.18;4.38;;;19.70;29.70;;;;;;8365841;28;19924;-56
2021/01/16 15:49:09;;;;;;;7.55;4.22;;;19.70;29.80;;;;;;8360974;28;20090;-56
2021/01/16 15:53:20;;;;;;;7.43;4.50;;;19.70;29.80;;;;;;8361396;28;20059;-56
2021/01/16 15:57:21;;;;;;;7.13;4.70;;;19.70;29.90;;;;;;8369662;28;20029;-55
2021/01/16 16:01:22;;;;;;;6.73;4.70;;;19.80;29.80;;;;;;8380186;28;20033;-54
2021/01/16 16:05:22;;;;;;;9.90;4.68;;;19.80;29.80;;;;;;8364163;28;20021;-55
2021/01/16 16:09:23;;;;;;;11.00;5.00;;;19.80;29.80;;;;;;8389965;28;20044;-55
2021/01/16 16:13:24;;;;;;;10.20;4.20;;;19.80;29.80;;;;;;8339613;28;20133;-52
2021/01/16 16:17:25;;;;;;;6.60;4.20;;;19.80;29.80;;;;;;8326604;28;20061;-55
2021/01/16 16:21:25;;;;;;;7.97;4.57;;;19.80;29.90;;;;;;8327600;28;20545;-53
2021/01/16 16:25:26;;;;;;;6.10;4.20;;;19.80;29.90;;;;;;8327818;28;20041;-55
2021/01/16 16:29:26;;;;;;;12.17;4.53;;;19.80;29.90;;;;;;8326214;28;20034;-48
2021/01/16 16:33:27;;;;;;;8.33;4.83;;;19.80;29.80;;;;;;8349221;28;20035;-54
2021/01/16 16:37:27;;;;;;;8.53;4.70;;;19.80;30.00;;;;;;8361170;28;20036;-54
2021/01/16 16:41:28;;;;;;;6.47;4.37;;;19.80;30.00;;;;;;8396375;28;20025;-55
2021/01/16 16:45:31;;;;;;;6.83;4.30;;;19.80;29.70;;;;;;8368019;28;20067;-53
2021/01/16 16:49:31;;;;;;;5.78;4.40;;;19.80;29.70;;;;;;8346267;28;20052;-53
2021/01/16 16:53:32;;;;;;;7.37;4.37;;;19.80;29.60;;;;;;8343474;28;20495;-54
2021/01/16 16:57:36;;;;;;;5.93;3.90;;;19.80;29.60;;;;;;8329903;28;20075;-54
2021/01/16 17:01:40;;;;;;;5.97;4.47;;;19.80;29.60;;;;;;8324364;28;20059;-55
2021/01/16 17:05:40;;;;;;;6.95;4.47;;;19.80;29.50;;;;;;8325209;28;20068;-54
2021/01/16 17:09:41;;;;;;;5.43;3.73;;;19.80;29.50;;;;;;8323475;28;20039;-55
2021/01/16 17:13:43;;;;;;;5.53;3.42;;;19.80;29.50;;;;;;8324979;28;20037;-54
2021/01/16 17:17:44;;;;;;;5.68;3.92;;;19.80;29.50;;;;;;8346965;28;20067;-54
2021/01/16 17:21:45;;;;;;;6.78;4.13;;;19.80;29.50;;;;;;8382273;28;20037;-54
2021/01/16 17:25:45;;;;;;;5.97;4.20;;;19.80;29.50;;;;;;8390698;28;20044;-55
2021/01/16 17:29:46;;;;;;;6.30;4.30;;;19.80;29.50;;;;;;8390413;28;20303;-54
2021/01/16 17:33:49;;;;;;;8.13;4.53;;;19.80;29.50;;;;;;8393889;28;20279;-55
2021/01/16 17:37:53;;;;;;;5.25;4.03;;;19.80;29.50;;;;;;8390758;28;20390;-56
2021/01/16 17:41:54;;;;;;;5.85;3.85;;;19.80;29.50;;;;;;8371477;28;20120;-55
2021/01/16 17:45:55;;;;;;;5.50;4.27;;;19.80;29.50;;;;;;8343735;28;20080;-55
2021/01/16 17:49:57;;;;;;;5.87;4.03;;;19.80;29.50;;;;;;8324405;28;20025;-55
2021/01/16 17:53:57;;;;;;;5.22;4.18;;;19.80;29.50;;;;;;8328723;28;20060;-54
2021/01/16 17:57:58;;;;;;;5.75;4.38;;;19.80;29.50;;;;;;8350359;28;20044;-55
2021/01/16 18:02:00;;;;;;;4.72;3.85;;;19.80;29.50;;;;;;8357954;28;20128;-54
2021/01/16 18:06:01;;;;;;;5.95;4.43;;;19.90;29.50;;;;;;8357572;28;20140;-56
2021/01/16 18:10:02;;;;;;;7.63;4.40;;;19.90;29.50;;;;;;8359925;28;20037;-55
2021/01/16 18:14:03;;;;;;;;;;;19.90;29.50;;;;;;8357188;28;20417;-53
2021/01/16 18:18:05;;;;;;;8.17;4.53;;;19.90;29.50;;;;;;8357039;28;19920;-55
2021/01/16 18:22:08;;;;;;;6.00;4.43;;;19.90;29.50;;;;;;8350997;28;20040;-55
2021/01/16 18:26:11;;;;;;;6.05;4.43;;;19.90;29.50;;;;;;8331191;28;20414;-54
2021/01/16 18:30:13;;;;;;;6.97;4.45;;;19.90;29.50;;;;;;8370731;28;20057;-53
2021/01/16 18:34:18;;;;;;;6.72;4.65;;;19.90;29.40;;;;;;8384924;28;20041;-52
2021/01/16 18:38:18;;;;;;;6.20;4.28;;;19.90;29.40;;;;;;8389281;28;20033;-54
2021/01/16 18:42:19;;;;;;;6.73;4.20;;;19.90;29.50;;;;;;8389545;28;20119;-52
2021/01/16 18:46:29;;;;;;;5.97;3.93;;;19.90;29.40;;;;;;8367385;28;20170;-53
2021/01/16 18:50:30;;;;;;;4.50;4.00;;;19.90;29.40;;;;;;8389095;28;20394;-55
2021/01/16 18:54:31;;;;;;;5.10;4.00;;;19.90;29.40;;;;;;8345911;28;20113;-55
2021/01/16 18:58:32;;;;;;;;;;;19.90;29.40;;;;;;8324844;28;20041;-55
2021/01/16 19:02:33;;;;;;;5.47;4.20;;;19.90;29.40;;;;;;8333671;28;20004;-55
2021/01/16 19:06:36;;;;;;;5.47;4.27;;;19.90;29.30;;;;;;8330111;28;20050;-55
2021/01/16 19:10:37;;;;;;;5.35;4.30;;;19.90;29.30;;;;;;8384635;28;20440;-56
2021/01/16 19:14:38;;;;;;;6.50;4.57;;;19.90;29.30;;;;;;8394870;28;20371;-56
2021/01/16 19:18:39;;;;;;;6.03;4.23;;;19.90;29.30;;;;;;8367996;28;20033;-56
2021/01/16 19:22:39;;;;;;;5.53;4.13;;;19.90;29.30;;;;;;8374739;28;20033;-55
2021/01/16 19:26:40;;;;;;;5.77;4.13;;;19.90;29.30;;;;;;8394198;28;20048;-56
2021/01/16 19:30:41;;;;;;;4.93;4.20;;;20.00;29.30;;;;;;8393250;28;20481;-54
2021/01/16 19:34:41;;;;;;;5.70;4.67;;;20.00;29.30;;;;;;8393946;28;20036;-56
2021/01/16 19:38:44;;;;;;;5.87;4.57;;;20.00;29.30;;;;;;8398361;28;20039;-55
2021/01/16 19:42:46;;;;;;;5.30;4.18;;;20.00;29.30;;;;;;8392351;28;20353;-55
2021/01/16 19:46:47;;;;;;;;;;;20.00;29.30;;;;;;8394199;28;20404;-55
2021/01/16 19:50:48;;;;;;;5.78;4.25;;;20.00;29.30;;;;;;8363869;28;20372;-55
2021/01/16 19:54:49;;;;;;;5.73;4.67;;;20.00;29.30;;;;;;8352358;28;20029;-54
2021/01/16 19:58:50;;;;;;;7.03;4.50;;;20.00;29.30;;;;;;8365232;28;20029;-56
2021/01/16 20:02:50;;;;;;;6.57;4.63;;;20.00;29.30;;;;;;8360422;28;20275;-56
2021/01/16 20:06:51;;;;;;;6.47;4.37;;;20.00;29.30;;;;;;8358417;28;20300;-56
2021/01/16 20:10:52;;;;;;;8.07;5.03;;;20.00;29.30;;;;;;8369607;28;20040;-55
2021/01/16 20:14:53;;;;;;;6.28;4.88;;;20.00;29.30;;;;;;8397917;28;20029;-54
2021/01/16 20:18:56;;;;;;;6.00;4.43;;;20.00;29.30;;;;;;8391331;28;20036;-54
2021/01/16 20:22:58;;;;;;;8.40;4.63;;;20.00;29.30;;;;;;8363050;28;20030;-55
2021/01/16 20:26:59;;;;;;;6.40;4.47;;;20.00;29.30;;;;;;8336640;28;20041;-55
2021/01/16 20:31:00;;;;;;;5.47;4.60;;;20.00;29.40;;;;;;8387640;28;20047;-56
2021/01/16 20:35:01;;;;;;;;;;;20.00;29.40;;;;;;8395559;28;20059;-55
2021/01/16 20:39:04;;;;;;;6.37;4.57;;;20.00;29.40;;;;;;8392467;27;20007;-55
2021/01/16 20:43:06;;;;;;;5.25;4.68;;;20.00;29.30;;;;;;8390252;28;20085;-55
2021/01/16 20:47:07;;;;;;;7.22;4.68;;;20.10;29.40;;;;;;8379562;28;20394;-54
2021/01/16 20:51:10;;;;;;;6.47;4.72;;;20.10;29.30;;;;;;8384056;28;20035;-54
2021/01/16 20:55:12;;;;;;;7.10;4.97;;;20.10;29.30;;;;;;8385715;28;20044;-54
2021/01/16 20:59:16;;;;;;;7.85;5.47;;;20.10;29.20;;;;;;8371660;28;20070;-53
2021/01/16 21:03:16;;;;;;;8.18;5.38;;;20.10;29.30;;;;;;8391315;28;20044;-53
2021/01/16 21:07:17;;;;;;;7.83;5.13;;;20.10;29.20;;;;;;8394471;27;20406;-53